createdAt,value
2023-01-31T00:00:41.852Z,100797.34
2023-01-31T00:03:28.483Z,100801.69
2023-01-31T00:06:18.600Z,100793.84
2023-01-31T00:09:06.827Z,100796.47
2023-01-31T00:11:54.487Z,100801.72
2023-01-31T00:14:42.671Z,100797.38
2023-01-31T00:17:59.861Z,100802.63
2023-01-31T00:20:51.189Z,100814.00
2023-01-31T00:23:41.344Z,100813.16
2023-01-31T00:26:34.847Z,100811.41
2023-01-31T00:29:21.991Z,100805.31
2023-01-31T00:32:10.598Z,100820.13
2023-01-31T00:35:26.719Z,100825.38
2023-01-31T00:38:13.403Z,100821.88
2023-01-31T00:41:02.425Z,100834.09
2023-01-31T00:43:49.037Z,100831.47
2023-01-31T00:46:38.370Z,100832.34
2023-01-31T00:49:29.308Z,100831.47
2023-01-31T00:52:18.184Z,100839.34
2023-01-31T00:55:07.901Z,100847.19
2023-01-31T00:57:54.965Z,100847.19
2023-01-31T01:00:46.159Z,100859.41
2023-01-31T01:03:34.136Z,100873.34
2023-01-31T01:07:14.677Z,100879.47
2023-01-31T01:10:01.129Z,100882.97
2023-01-31T01:12:57.133Z,100900.41
2023-01-31T01:15:44.011Z,100893.44
2023-01-31T01:18:37.210Z,100895.16
2023-01-31T01:21:49.802Z,100897.78
2023-01-31T01:24:42.976Z,100891.69
2023-01-31T01:27:30.290Z,100900.41
2023-01-31T01:30:24.204Z,100896.03
2023-01-31T01:33:10.890Z,100899.53
2023-01-31T01:36:05.520Z,100887.31
2023-01-31T01:38:56.557Z,100902.16
2023-01-31T01:41:48.836Z,100892.56
2023-01-31T01:45:22.303Z,100909.13
2023-01-31T01:48:21.434Z,100932.69
2023-01-31T01:51:10.160Z,100920.47
2023-01-31T01:54:25.527Z,100914.38
2023-01-31T01:57:23.507Z,100923.09
2023-01-31T02:00:16.415Z,100910.88
2023-01-31T02:03:28.480Z,100931.81
2023-01-31T02:06:16.751Z,100944.91
2023-01-31T02:09:20.200Z,100930.06
2023-01-31T02:12:07.080Z,100949.28
2023-01-31T02:14:55.109Z,100938.78
2023-01-31T02:17:51.719Z,100950.16
2023-01-31T02:21:15.670Z,100955.38
2023-01-31T02:24:41.732Z,100968.47
2023-01-31T02:28:19.564Z,100974.59
2023-01-31T02:31:55.195Z,100985.06
2023-01-31T02:35:08.188Z,100992.91
2023-01-31T02:38:34.735Z,100985.94
2023-01-31T02:41:31.257Z,100999.03
2023-01-31T02:44:46.121Z,100999.91
2023-01-31T02:47:55.605Z,101004.25
2023-01-31T02:51:33.067Z,101000.75
2023-01-31T02:58:09.178Z,100999.88
2023-01-31T03:01:00.247Z,100992.91
2023-01-31T03:03:47.963Z,100996.38
2023-01-31T03:11:07.559Z,101010.38
2023-01-31T03:14:04.299Z,101010.38
2023-01-31T03:17:32.730Z,100999.00
2023-01-31T03:20:28.321Z,101004.22
2023-01-31T03:23:19.390Z,101004.22
2023-01-31T03:26:09.312Z,100999.84
2023-01-31T03:28:58.907Z,101009.44
2023-01-31T03:31:54.649Z,101013.78
2023-01-31T03:34:42.015Z,101024.25
2023-01-31T03:37:37.281Z,101028.59
2023-01-31T03:40:42.502Z,101026.81
2023-01-31T03:43:39.158Z,101033.81
2023-01-31T03:46:52.752Z,101036.41
2023-01-31T03:49:43.143Z,101047.78
2023-01-31T03:52:36.067Z,101038.16
2023-01-31T03:55:31.013Z,101041.66
2023-01-31T03:58:21.878Z,101049.44
2023-01-31T04:01:10.778Z,101046.81
2023-01-31T04:04:00.454Z,101052.00
2023-01-31T04:06:51.526Z,101038.91
2023-01-31T04:09:42.944Z,101035.38
2023-01-31T04:12:30.057Z,101043.19
2023-01-31T04:15:21.198Z,101044.91
2023-01-31T04:18:09.099Z,101055.31
2023-01-31T04:20:59.625Z,101057.94
2023-01-31T04:23:46.307Z,101050.03
2023-01-31T04:27:22.571Z,101059.63
2023-01-31T04:30:55.673Z,101051.72
2023-01-31T04:33:43.896Z,101056.03
2023-01-31T04:36:32.113Z,101056.03
2023-01-31T04:39:18.876Z,101053.38
2023-01-31T04:42:05.776Z,101062.97
2023-01-31T04:44:55.192Z,101070.00
2023-01-31T04:47:41.790Z,101082.97
2023-01-31T04:50:33.050Z,101083.88
2023-01-31T04:53:47.442Z,101082.16
2023-01-31T04:56:39.621Z,101090.88
2023-01-31T04:59:26.064Z,101092.50
2023-01-31T05:02:38.006Z,101102.06
2023-01-31T05:05:24.551Z,101096.00
2023-01-31T05:08:12.813Z,101100.41
2023-01-31T05:11:07.637Z,101102.06
2023-01-31T05:13:56.200Z,101092.59
2023-01-31T05:16:45.924Z,101093.34
2023-01-31T05:19:58.019Z,101095.97
2023-01-31T05:22:48.243Z,101097.72
2023-01-31T05:25:53.675Z,101090.72
2023-01-31T05:28:43.120Z,101101.19
2023-01-31T05:31:29.728Z,101105.63
2023-01-31T05:34:41.871Z,101107.41
2023-01-31T05:37:31.499Z,101113.47
2023-01-31T05:40:18.849Z,101110.03
2023-01-31T05:43:09.580Z,101129.09
2023-01-31T05:46:45.779Z,101118.69
2023-01-31T05:49:58.338Z,101128.38
2023-01-31T05:52:56.604Z,101126.53
2023-01-31T05:56:33.708Z,101123.13
2023-01-31T05:59:24.232Z,101122.25
2023-01-31T06:02:19.070Z,101126.59
2023-01-31T06:05:30.963Z,101132.81
2023-01-31T06:08:17.800Z,101123.19
2023-01-31T06:11:10.637Z,101122.38
2023-01-31T06:14:26.434Z,101131.13
2023-01-31T06:17:13.188Z,101139.00
2023-01-31T06:20:00.232Z,101142.56
2023-01-31T06:22:54.680Z,101129.44
2023-01-31T06:25:41.238Z,101140.03
2023-01-31T06:28:56.720Z,101146.97
2023-01-31T06:31:50.088Z,101146.16
2023-01-31T06:34:39.295Z,101140.06
2023-01-31T06:37:26.145Z,101147.06
2023-01-31T06:40:13.711Z,101141.84
2023-01-31T06:43:01.640Z,101136.63
2023-01-31T06:45:58.297Z,101137.50
2023-01-31T06:48:52.430Z,101133.22
2023-01-31T06:51:46.620Z,101133.25
2023-01-31T06:54:37.035Z,101138.50
2023-01-31T06:57:51.301Z,101128.91
2023-01-31T07:00:38.216Z,101142.94
2023-01-31T07:03:27.404Z,101147.28
2023-01-31T07:06:20.783Z,101144.69
2023-01-31T07:09:11.534Z,101147.34
2023-01-31T07:11:58.178Z,101145.56
2023-01-31T07:15:14.558Z,101147.38
2023-01-31T07:18:01.649Z,101150.00
2023-01-31T07:21:17.543Z,101150.84
2023-01-31T07:24:05.989Z,101122.91
2023-01-31T07:27:42.820Z,101138.69
2023-01-31T07:30:30.682Z,101132.59
2023-01-31T07:33:19.905Z,101129.13
2023-01-31T07:36:15.921Z,101135.22
2023-01-31T07:39:39.229Z,101137.84
2023-01-31T07:42:26.129Z,101136.09
2023-01-31T07:45:24.012Z,101129.13
2023-01-31T07:48:11.215Z,101134.38
2023-01-31T07:51:48.143Z,101136.16
2023-01-31T07:54:40.113Z,101138.78
2023-01-31T07:57:27.891Z,101139.66
2023-01-31T08:00:32.076Z,101140.50
2023-01-31T08:03:38.131Z,101147.47
2023-01-31T08:06:55.419Z,101140.50
2023-01-31T08:09:52.025Z,101130.91
2023-01-31T08:12:50.159Z,101142.28
2023-01-31T08:15:40.167Z,101144.91
2023-01-31T08:18:29.666Z,101137.91
2023-01-31T08:21:16.947Z,101141.44
2023-01-31T08:24:05.821Z,101140.53
2023-01-31T08:26:58.296Z,101134.44
2023-01-31T08:29:44.797Z,101137.03
2023-01-31T08:32:32.853Z,101135.31
2023-01-31T08:35:22.821Z,101133.56
2023-01-31T08:38:16.366Z,101123.06
2023-01-31T08:41:05.386Z,101129.16
2023-01-31T08:47:47.185Z,101128.31
2023-01-31T08:51:04.629Z,101121.31
2023-01-31T08:54:17.073Z,101117.81
2023-01-31T08:57:06.052Z,101123.06
2023-01-31T08:59:56.110Z,101112.56
2023-01-31T09:02:58.424Z,101116.06
2023-01-31T09:05:47.869Z,101099.44
2023-01-31T09:08:37.252Z,101126.53
2023-01-31T09:11:26.241Z,101109.97
2023-01-31T09:14:15.165Z,101117.81
2023-01-31T09:17:09.433Z,101104.72
2023-01-31T09:19:58.096Z,101104.72
2023-01-31T09:22:47.466Z,101109.97
2023-01-31T09:25:46.127Z,101094.25
2023-01-31T09:29:01.956Z,101096.88
2023-01-31T09:31:52.059Z,101089.00
2023-01-31T09:34:40.425Z,101085.50
2023-01-31T09:37:54.168Z,101088.13
2023-01-31T09:40:42.067Z,101074.16
2023-01-31T09:43:36.144Z,101076.78
2023-01-31T09:46:32.439Z,101068.91
2023-01-31T09:49:51.672Z,101073.28
2023-01-31T09:52:41.639Z,101066.28
2023-01-31T09:56:17.212Z,101056.69
2023-01-31T10:00:08.383Z,101059.28
2023-01-31T10:03:23.763Z,101049.69
2023-01-31T10:06:25.813Z,101038.31
2023-01-31T10:09:43.860Z,101035.66
2023-01-31T10:12:44.250Z,101035.63
2023-01-31T10:15:44.708Z,101047.88
2023-01-31T10:18:42.600Z,101030.41
2023-01-31T10:22:25.440Z,101014.66
2023-01-31T10:25:30.220Z,101017.28
2023-01-31T10:28:33.167Z,100999.75
2023-01-31T10:31:36.272Z,100992.75
2023-01-31T10:34:28.297Z,100998.84
2023-01-31T10:37:49.883Z,100987.47
2023-01-31T10:40:45.996Z,100976.97
2023-01-31T10:43:59.960Z,100976.03
2023-01-31T10:46:52.358Z,100968.19
2023-01-31T10:49:42.435Z,100945.41
2023-01-31T10:53:04.013Z,100952.41
2023-01-31T10:56:26.869Z,100948.88
2023-01-31T10:59:27.593Z,100943.59
2023-01-31T11:02:23.429Z,100941.81
2023-01-31T11:05:20.181Z,100943.63
2023-01-31T11:08:31.799Z,100936.66
2023-01-31T11:11:30.331Z,100920.06
2023-01-31T11:14:44.190Z,100914.75
2023-01-31T11:17:34.607Z,100898.13
2023-01-31T11:20:55.673Z,100887.59
2023-01-31T11:23:47.080Z,100878.00
2023-01-31T11:27:03.464Z,100881.47
2023-01-31T11:30:21.320Z,100877.16
2023-01-31T11:33:48.638Z,100874.50
2023-01-31T11:36:52.072Z,100859.63
2023-01-31T11:40:28.963Z,100859.69
2023-01-31T11:43:44.793Z,100856.19
2023-01-31T11:46:48.337Z,100861.41
2023-01-31T11:49:58.056Z,100860.56
2023-01-31T11:52:47.114Z,100842.22
2023-01-31T11:56:16.942Z,100829.94
2023-01-31T11:59:33.590Z,100828.19
2023-01-31T12:02:47.951Z,100801.91
2023-01-31T12:06:03.659Z,100790.56
2023-01-31T12:09:00.683Z,100767.72
2023-01-31T12:12:10.315Z,100759.81
2023-01-31T12:15:19.225Z,100730.94
2023-01-31T12:18:16.143Z,100747.47
2023-01-31T12:21:24.719Z,100743.09
2023-01-31T12:25:10.231Z,100729.19
2023-01-31T12:28:14.459Z,100728.28
2023-01-31T12:36:03.822Z,100722.34
2023-01-31T12:39:23.355Z,100715.44
2023-01-31T12:42:57.012Z,100711.16
2023-01-31T12:46:16.135Z,100706.69
2023-01-31T12:49:41.937Z,100698.00
2023-01-31T12:52:44.740Z,100687.50
2023-01-31T12:55:57.041Z,100687.59
2023-01-31T12:59:15.293Z,100678.91
2023-01-31T13:06:37.540Z,100659.63
2023-01-31T13:09:39.512Z,100668.34
2023-01-31T13:12:37.251Z,100654.34
2023-01-31T13:15:54.767Z,100654.38
2023-01-31T13:19:10.466Z,100656.19
2023-01-31T13:22:30.076Z,100652.75
2023-01-31T13:26:02.929Z,100633.56
2023-01-31T13:28:59.683Z,100641.34
2023-01-31T13:31:53.163Z,100643.19
2023-01-31T13:35:14.944Z,100637.00
2023-01-31T13:38:31.553Z,100627.41
2023-01-31T13:41:35.143Z,100628.28
2023-01-31T13:44:22.184Z,100632.69
2023-01-31T13:47:30.833Z,100625.66
2023-01-31T13:50:37.893Z,100615.19
2023-01-31T13:53:41.718Z,100614.38
2023-01-31T13:56:38.051Z,100621.25
2023-01-31T13:59:41.803Z,100621.25
2023-01-31T14:02:29.097Z,100591.72
2023-01-31T14:05:51.882Z,100609.03
2023-01-31T14:09:02.674Z,100611.59
2023-01-31T14:12:03.023Z,100602.88
2023-01-31T14:15:01.267Z,100607.28
2023-01-31T14:18:11.670Z,100593.41
2023-01-31T14:20:58.236Z,100590.66
2023-01-31T14:23:51.872Z,100587.16
2023-01-31T14:27:20.143Z,100585.41
2023-01-31T14:30:49.412Z,100581.97
2023-01-31T14:33:39.281Z,100573.19
2023-01-31T14:37:23.590Z,100574.94
2023-01-31T14:40:46.232Z,100574.13
2023-01-31T14:44:10.283Z,100566.16
2023-01-31T14:47:18.029Z,100560.84
2023-01-31T14:51:21.101Z,100570.53
2023-01-31T14:54:36.420Z,100553.88
2023-01-31T14:57:56.594Z,100548.63
2023-01-31T15:01:07.671Z,100539.88
2023-01-31T15:04:06.144Z,100554.66
2023-01-31T15:07:25.435Z,100542.38
2023-01-31T15:10:54.452Z,100540.63
2023-01-31T15:14:03.623Z,100531.03
2023-01-31T15:17:11.126Z,100519.63
2023-01-31T15:21:00.328Z,100542.34
2023-01-31T15:23:52.331Z,100529.22
2023-01-31T15:26:46.441Z,100519.56
2023-01-31T15:29:52.862Z,100526.50
2023-01-31T15:33:17.236Z,100530.91
2023-01-31T15:36:34.988Z,100527.41
2023-01-31T15:39:49.580Z,100516.78
2023-01-31T15:42:36.109Z,100513.28
2023-01-31T15:45:32.122Z,100508.00
2023-01-31T15:48:21.529Z,100493.19
2023-01-31T15:51:36.813Z,100496.66
2023-01-31T15:54:28.769Z,100496.72
2023-01-31T15:57:22.717Z,100490.47
2023-01-31T16:00:38.851Z,100507.16
2023-01-31T16:04:38.812Z,100492.16
2023-01-31T16:07:34.381Z,100498.28
2023-01-31T16:10:28.663Z,100496.50
2023-01-31T16:13:20.848Z,100488.59
2023-01-31T16:16:13.644Z,100508.69
2023-01-31T16:19:05.085Z,100525.34
2023-01-31T16:21:57.411Z,100515.66
2023-01-31T16:25:01.841Z,100506.09
2023-01-31T16:27:50.853Z,100513.06
2023-01-31T16:30:47.303Z,100527.00
2023-01-31T16:34:05.219Z,100520.84
2023-01-31T16:37:05.135Z,100506.03
2023-01-31T16:39:52.356Z,100516.44
2023-01-31T16:43:15.682Z,100521.63
2023-01-31T16:46:45.020Z,100511.97
2023-01-31T16:49:40.172Z,100509.38
2023-01-31T16:52:33.414Z,100490.19
2023-01-31T16:55:29.410Z,100488.19
2023-01-31T16:58:46.817Z,100486.41
2023-01-31T17:01:35.596Z,100475.97
2023-01-31T17:04:27.247Z,100486.44
2023-01-31T17:07:27.137Z,100489.94
2023-01-31T17:10:27.642Z,100504.72
2023-01-31T17:13:33.599Z,100486.44
2023-01-31T17:16:27.583Z,100482.00
2023-01-31T17:19:20.551Z,100475.94
2023-01-31T17:22:08.193Z,100482.91
2023-01-31T17:24:58.644Z,100464.53
2023-01-31T17:27:49.256Z,100453.09
2023-01-31T17:30:55.050Z,100446.13
2023-01-31T17:33:45.146Z,100437.34
2023-01-31T17:36:32.205Z,100438.19
2023-01-31T17:39:23.651Z,100425.94
2023-01-31T17:42:19.455Z,100430.34
2023-01-31T17:45:17.875Z,100416.25
2023-01-31T17:48:11.744Z,100410.22
2023-01-31T17:51:08.660Z,100412.75
2023-01-31T17:53:56.030Z,100423.25
2023-01-31T17:56:45.633Z,100408.47
2023-01-31T17:59:43.743Z,100390.81
2023-01-31T18:02:34.854Z,100390.78
2023-01-31T18:05:38.308Z,100383.81
2023-01-31T18:08:27.197Z,100395.13
2023-01-31T18:11:18.318Z,100392.47
2023-01-31T18:14:33.384Z,100393.28
2023-01-31T18:17:52.639Z,100380.09
2023-01-31T18:20:42.932Z,100395.81
2023-01-31T18:23:31.977Z,100379.09
2023-01-31T18:26:20.961Z,100380.81
2023-01-31T18:29:10.532Z,100373.84
2023-01-31T18:32:24.415Z,100379.13
2023-01-31T18:38:45.276Z,100350.22
2023-01-31T18:41:31.954Z,100362.31
2023-01-31T18:44:28.240Z,100369.28
2023-01-31T18:47:15.189Z,100367.59
2023-01-31T18:50:04.837Z,100363.16
2023-01-31T18:52:57.683Z,100364.09
2023-01-31T18:56:34.182Z,100361.44
2023-01-31T18:59:46.292Z,100363.91
2023-01-31T19:02:32.951Z,100377.22
2023-01-31T19:05:45.057Z,100370.25
2023-01-31T19:08:35.501Z,100370.53
2023-01-31T19:11:28.961Z,100378.47
2023-01-31T19:14:18.276Z,100391.78
2023-01-31T19:17:12.747Z,100394.53
2023-01-31T19:20:07.130Z,100386.00
2023-01-31T19:23:21.811Z,100386.97
2023-01-31T19:26:20.529Z,100397.66
2023-01-31T19:29:16.232Z,100411.66
2023-01-31T19:32:05.285Z,100410.06
2023-01-31T19:34:54.076Z,100411.03
2023-01-31T19:37:42.426Z,100412.75
2023-01-31T19:40:34.009Z,100418.00
2023-01-31T19:43:25.473Z,100415.31
2023-01-31T19:46:14.275Z,100421.50
2023-01-31T19:49:02.221Z,100421.59
2023-01-31T19:52:16.769Z,100421.66
2023-01-31T19:55:06.190Z,100428.69
2023-01-31T19:57:57.117Z,100430.59
2023-01-31T20:00:47.570Z,100438.38
2023-01-31T20:03:34.825Z,100442.75
2023-01-31T20:06:27.122Z,100439.34
2023-01-31T20:09:20.800Z,100440.22
2023-01-31T20:12:07.556Z,100445.47
2023-01-31T20:14:56.559Z,100433.22
2023-01-31T20:17:44.299Z,100437.59
2023-01-31T20:20:56.409Z,100443.75
2023-01-31T20:24:08.652Z,100444.66
2023-01-31T20:27:02.794Z,100452.56
2023-01-31T20:30:03.200Z,100454.28
2023-01-31T20:33:07.892Z,100450.84
2023-01-31T20:35:54.616Z,100457.78
2023-01-31T20:38:44.170Z,100463.91
2023-01-31T20:41:31.716Z,100463.06
2023-01-31T20:44:20.950Z,100462.22
2023-01-31T20:47:11.143Z,100463.13
2023-01-31T20:50:03.893Z,100478.03
2023-01-31T20:52:51.476Z,100489.34
2023-01-31T20:55:40.869Z,100477.97
2023-01-31T20:58:31.208Z,100500.78
2023-01-31T21:01:53.320Z,100505.25
2023-01-31T21:05:08.411Z,100513.09
2023-01-31T21:08:02.769Z,100507.88
2023-01-31T21:10:54.287Z,100497.44
2023-01-31T21:13:47.642Z,100502.66
2023-01-31T21:17:06.507Z,100513.09
2023-01-31T21:20:23.352Z,100514.84
2023-01-31T21:23:10.956Z,100528.94
2023-01-31T21:26:05.342Z,100533.13
2023-01-31T21:29:21.480Z,100541.03
2023-01-31T21:32:10.533Z,100550.53
2023-01-31T21:34:57.547Z,100550.56
2023-01-31T21:38:13.875Z,100534.84
2023-01-31T21:41:18.590Z,100546.28
2023-01-31T21:44:05.740Z,100494.06
2023-01-31T21:46:57.077Z,100534.91
2023-01-31T21:49:47.610Z,100536.72
2023-01-31T21:52:35.262Z,100537.72
2023-01-31T21:55:48.659Z,100539.50
2023-01-31T21:58:45.075Z,100533.44
2023-01-31T22:02:21.352Z,100534.31
2023-01-31T22:05:09.260Z,100525.66
2023-01-31T22:08:03.522Z,100535.28
2023-01-31T22:11:51.581Z,100523.06
2023-01-31T22:14:40.432Z,100530.13
2023-01-31T22:17:27.240Z,100530.19
2023-01-31T22:24:37.669Z,100548.59
2023-01-31T22:28:18.609Z,100544.28
2023-01-31T22:31:36.436Z,100536.41
2023-01-31T22:34:34.193Z,100546.06
2023-01-31T22:37:24.564Z,100539.97
2023-01-31T22:40:24.874Z,100539.94
2023-01-31T22:43:25.394Z,100540.88
2023-01-31T22:46:38.405Z,100548.72
2023-01-31T22:49:28.554Z,100547.00
2023-01-31T22:56:51.313Z,100548.69
2023-01-31T23:03:09.494Z,100553.91
2023-01-31T23:17:54.446Z,100546.06
2023-01-31T23:21:40.542Z,100537.34
2023-01-31T23:24:42.575Z,100533.00
2023-01-31T23:27:41.806Z,100533.03
2023-01-31T23:30:30.847Z,100528.59
2023-01-31T23:33:28.193Z,100535.59
2023-01-31T23:36:44.387Z,100524.25
2023-01-31T23:39:39.534Z,100542.56
2023-01-31T23:42:34.747Z,100542.50
2023-01-31T23:45:27.388Z,100549.53
2023-01-31T23:48:26.251Z,100537.31
2023-01-31T23:51:15.387Z,100545.13
2023-01-31T23:54:13.735Z,100526.84
2023-01-31T23:57:07.674Z,100525.09
